sensor_id;sensor_type;location;lat;lon;timestamp;temperature;humidity
15003;DHT22;7597;53.590;10.020;2022-11-12T00:01:25;9.40;99.90
15003;DHT22;7597;53.590;10.020;2022-11-12T00:03:52;9.40;99.90
15003;DHT22;7597;53.590;10.020;2022-11-12T00:06:19;9.40;99.90
15003;DHT22;7597;53.590;10.020;2022-11-12T00:08:46;9.40;99.90
15003;DHT22;7597;53.590;10.020;2022-11-12T00:11:13;9.50;99.90
15003;DHT22;7597;53.590;10.020;2022-11-12T00:13:40;9.50;99.90
15003;DHT22;7597;53.590;10.020;2022-11-12T00:16:06;9.50;99.90
15003;DHT22;7597;53.590;10.020;2022-11-12T00:18:33;9.30;99.90
15003;DHT22;7597;53.590;10.020;2022-11-12T00:21:00;9.50;99.90
15003;DHT22;7597;53.590;10.020;2022-11-12T00:23:26;9.60;99.90
15003;DHT22;7597;53.590;10.020;2022-11-12T00:25:57;9.60;99.90
15003;DHT22;7597;53.590;10.020;2022-11-12T00:28:23;9.60;99.90
15003;DHT22;7597;53.590;10.020;2022-11-12T00:30:50;9.60;99.90
15003;DHT22;7597;53.590;10.020;2022-11-12T00:33:18;9.70;93.50
15003;DHT22;7597;53.590;10.020;2022-11-12T00:35:44;9.70;93.60
15003;DHT22;7597;53.590;10.020;2022-11-12T00:38:11;9.70;89.20
15003;DHT22;7597;53.590;10.020;2022-11-12T00:40:37;9.70;81.50
15003;DHT22;7597;53.590;10.020;2022-11-12T00:43:04;9.70;70.30
15003;DHT22;7597;53.590;10.020;2022-11-12T00:45:31;9.70;58.00
15003;DHT22;7597;53.590;10.020;2022-11-12T00:47:57;9.70;42.80
15003;DHT22;7597;53.590;10.020;2022-11-12T00:50:24;9.70;32.40
15003;DHT22;7597;53.590;10.020;2022-11-12T00:52:51;9.70;26.60
15003;DHT22;7597;53.590;10.020;2022-11-12T00:55:17;9.70;23.60
15003;DHT22;7597;53.590;10.020;2022-11-12T00:57:44;9.70;19.30
15003;DHT22;7597;53.590;10.020;2022-11-12T01:00:14;9.70;14.80
15003;DHT22;7597;53.590;10.020;2022-11-12T01:02:38;9.70;11.80
15003;DHT22;7597;53.590;10.020;2022-11-12T01:05:05;9.70;6.50
15003;DHT22;7597;53.590;10.020;2022-11-12T01:07:31;9.70;1.00
15003;DHT22;7597;53.590;10.020;2022-11-12T01:09:58;9.70;1.00
15003;DHT22;7597;53.590;10.020;2022-11-12T01:12:25;9.70;1.00
15003;DHT22;7597;53.590;10.020;2022-11-12T01:14:51;9.80;1.00
15003;DHT22;7597;53.590;10.020;2022-11-12T01:17:18;9.80;1.00
15003;DHT22;7597;53.590;10.020;2022-11-12T01:19:45;9.80;1.00
15003;DHT22;7597;53.590;10.020;2022-11-12T01:22:11;9.80;1.00
15003;DHT22;7597;53.590;10.020;2022-11-12T01:24:38;9.80;1.00
15003;DHT22;7597;53.590;10.020;2022-11-12T01:27:05;9.80;1.00
15003;DHT22;7597;53.590;10.020;2022-11-12T01:29:31;9.80;1.00
15003;DHT22;7597;53.590;10.020;2022-11-12T01:31:58;9.90;1.00
15003;DHT22;7597;53.590;10.020;2022-11-12T01:34:25;9.90;1.00
15003;DHT22;7597;53.590;10.020;2022-11-12T01:36:51;9.90;1.00
15003;DHT22;7597;53.590;10.020;2022-11-12T01:39:19;10.00;1.00
15003;DHT22;7597;53.590;10.020;2022-11-12T01:41:45;10.00;1.00
15003;DHT22;7597;53.590;10.020;2022-11-12T01:44:14;10.00;1.00
15003;DHT22;7597;53.590;10.020;2022-11-12T01:46:44;10.00;1.00
15003;DHT22;7597;53.590;10.020;2022-11-12T01:49:09;10.00;1.00
15003;DHT22;7597;53.590;10.020;2022-11-12T01:51:36;10.00;1.00
15003;DHT22;7597;53.590;10.020;2022-11-12T01:54:03;10.00;1.00
15003;DHT22;7597;53.590;10.020;2022-11-12T01:56:29;10.00;1.00
15003;DHT22;7597;53.590;10.020;2022-11-12T01:58:58;10.10;1.00
15003;DHT22;7597;53.590;10.020;2022-11-12T02:01:22;10.00;1.00
15003;DHT22;7597;53.590;10.020;2022-11-12T02:03:49;10.10;1.00
15003;DHT22;7597;53.590;10.020;2022-11-12T02:06:15;10.10;1.00
15003;DHT22;7597;53.590;10.020;2022-11-12T02:08:42;10.10;1.00
15003;DHT22;7597;53.590;10.020;2022-11-12T02:11:12;10.10;1.00
15003;DHT22;7597;53.590;10.020;2022-11-12T02:13:38;10.10;1.00
15003;DHT22;7597;53.590;10.020;2022-11-12T02:16:10;10.00;1.00
15003;DHT22;7597;53.590;10.020;2022-11-12T02:18:37;10.00;1.00
15003;DHT22;7597;53.590;10.020;2022-11-12T02:21:05;10.10;1.00
15003;DHT22;7597;53.590;10.020;2022-11-12T02:23:31;10.10;1.00
15003;DHT22;7597;53.590;10.020;2022-11-12T02:25:59;10.00;1.00
15003;DHT22;7597;53.590;10.020;2022-11-12T02:28:25;10.00;1.00
15003;DHT22;7597;53.590;10.020;2022-11-12T02:30:51;10.00;1.00
15003;DHT22;7597;53.590;10.020;2022-11-12T02:33:18;10.00;1.00
15003;DHT22;7597;53.590;10.020;2022-11-12T02:35:45;9.90;1.00
15003;DHT22;7597;53.590;10.020;2022-11-12T02:38:11;9.90;1.00
15003;DHT22;7597;53.590;10.020;2022-11-12T02:40:38;9.80;1.00
15003;DHT22;7597;53.590;10.020;2022-11-12T02:43:05;9.70;1.00
15003;DHT22;7597;53.590;10.020;2022-11-12T02:45:31;9.60;1.00
15003;DHT22;7597;53.590;10.020;2022-11-12T02:47:58;9.50;1.00
15003;DHT22;7597;53.590;10.020;2022-11-12T02:50:25;9.50;1.00
15003;DHT22;7597;53.590;10.020;2022-11-12T02:52:51;9.40;1.00
15003;DHT22;7597;53.590;10.020;2022-11-12T02:55:18;9.20;1.00
15003;DHT22;7597;53.590;10.020;2022-11-12T02:57:45;9.20;1.00
15003;DHT22;7597;53.590;10.020;2022-11-12T03:00:12;9.20;1.00
15003;DHT22;7597;53.590;10.020;2022-11-12T03:02:38;9.10;1.00
15003;DHT22;7597;53.590;10.020;2022-11-12T03:05:05;9.00;1.00
15003;DHT22;7597;53.590;10.020;2022-11-12T03:07:31;8.90;1.00
15003;DHT22;7597;53.590;10.020;2022-11-12T03:09:58;8.90;1.00
15003;DHT22;7597;53.590;10.020;2022-11-12T03:12:25;8.90;1.00
15003;DHT22;7597;53.590;10.020;2022-11-12T03:14:51;8.90;1.00
15003;DHT22;7597;53.590;10.020;2022-11-12T03:17:18;8.90;1.00
15003;DHT22;7597;53.590;10.020;2022-11-12T03:19:45;8.80;1.00
15003;DHT22;7597;53.590;10.020;2022-11-12T03:22:11;8.80;1.00
15003;DHT22;7597;53.590;10.020;2022-11-12T03:24:38;8.70;1.00
15003;DHT22;7597;53.590;10.020;2022-11-12T03:27:05;8.60;1.00
15003;DHT22;7597;53.590;10.020;2022-11-12T03:29:31;8.70;1.00
15003;DHT22;7597;53.590;10.020;2022-11-12T03:31:58;8.60;1.00
15003;DHT22;7597;53.590;10.020;2022-11-12T03:34:25;8.50;1.00
15003;DHT22;7597;53.590;10.020;2022-11-12T03:36:51;8.40;1.00
15003;DHT22;7597;53.590;10.020;2022-11-12T03:39:18;8.40;1.00
15003;DHT22;7597;53.590;10.020;2022-11-12T03:41:45;8.50;9.80
15003;DHT22;7597;53.590;10.020;2022-11-12T03:44:11;8.40;13.70
15003;DHT22;7597;53.590;10.020;2022-11-12T03:46:38;8.40;20.60
15003;DHT22;7597;53.590;10.020;2022-11-12T03:49:05;8.40;33.30
15003;DHT22;7597;53.590;10.020;2022-11-12T03:51:31;8.50;34.10
15003;DHT22;7597;53.590;10.020;2022-11-12T03:53:58;8.40;23.30
15003;DHT22;7597;53.590;10.020;2022-11-12T03:56:24;8.40;21.40
15003;DHT22;7597;53.590;10.020;2022-11-12T03:58:51;8.40;31.40
15003;DHT22;7597;53.590;10.020;2022-11-12T04:01:18;8.30;18.50
15003;DHT22;7597;53.590;10.020;2022-11-12T04:03:44;8.20;21.00
15003;DHT22;7597;53.590;10.020;2022-11-12T04:06:11;8.20;29.90
15003;DHT22;7597;53.590;10.020;2022-11-12T04:08:43;8.10;27.20
15003;DHT22;7597;53.590;10.020;2022-11-12T04:11:11;8.00;24.80
15003;DHT22;7597;53.590;10.020;2022-11-12T04:13:39;7.90;34.50
15003;DHT22;7597;53.590;10.020;2022-11-12T04:16:08;7.80;34.70
15003;DHT22;7597;53.590;10.020;2022-11-12T04:18:39;7.70;41.20
15003;DHT22;7597;53.590;10.020;2022-11-12T04:21:30;7.60;49.20
15003;DHT22;7597;53.590;10.020;2022-11-12T04:24:01;7.50;71.80
15003;DHT22;7597;53.590;10.020;2022-11-12T04:26:27;7.50;85.30
15003;DHT22;7597;53.590;10.020;2022-11-12T04:28:54;7.50;99.90
15003;DHT22;7597;53.590;10.020;2022-11-12T04:31:27;7.70;99.90
15003;DHT22;7597;53.590;10.020;2022-11-12T04:33:54;7.60;99.90
15003;DHT22;7597;53.590;10.020;2022-11-12T04:36:20;7.60;99.90
15003;DHT22;7597;53.590;10.020;2022-11-12T04:38:47;7.50;99.90
15003;DHT22;7597;53.590;10.020;2022-11-12T04:41:14;7.40;99.90
15003;DHT22;7597;53.590;10.020;2022-11-12T04:43:47;7.40;99.90
15003;DHT22;7597;53.590;10.020;2022-11-12T04:46:19;7.30;99.90
15003;DHT22;7597;53.590;10.020;2022-11-12T04:48:46;7.20;99.90
15003;DHT22;7597;53.590;10.020;2022-11-12T04:51:12;7.10;99.90
15003;DHT22;7597;53.590;10.020;2022-11-12T04:53:45;7.00;99.90
15003;DHT22;7597;53.590;10.020;2022-11-12T04:56:12;7.00;99.90
15003;DHT22;7597;53.590;10.020;2022-11-12T04:58:39;7.00;99.90
15003;DHT22;7597;53.590;10.020;2022-11-12T05:01:06;6.90;99.90
15003;DHT22;7597;53.590;10.020;2022-11-12T05:03:33;6.90;99.90
15003;DHT22;7597;53.590;10.020;2022-11-12T05:06:00;6.80;99.90
15003;DHT22;7597;53.590;10.020;2022-11-12T05:08:26;6.70;99.90
15003;DHT22;7597;53.590;10.020;2022-11-12T05:10:53;6.70;99.90
15003;DHT22;7597;53.590;10.020;2022-11-12T05:13:20;6.70;99.90
15003;DHT22;7597;53.590;10.020;2022-11-12T05:15:47;6.80;99.90
15003;DHT22;7597;53.590;10.020;2022-11-12T05:18:13;6.70;99.90
15003;DHT22;7597;53.590;10.020;2022-11-12T05:20:40;6.70;99.90
15003;DHT22;7597;53.590;10.020;2022-11-12T05:23:07;6.70;99.90
15003;DHT22;7597;53.590;10.020;2022-11-12T05:25:34;6.30;99.90
15003;DHT22;7597;53.590;10.020;2022-11-12T05:28:01;6.30;99.90
15003;DHT22;7597;53.590;10.020;2022-11-12T05:30:27;6.10;99.90
15003;DHT22;7597;53.590;10.020;2022-11-12T05:32:54;6.10;99.90
15003;DHT22;7597;53.590;10.020;2022-11-12T05:35:21;6.00;99.90
15003;DHT22;7597;53.590;10.020;2022-11-12T05:37:47;6.00;99.90
15003;DHT22;7597;53.590;10.020;2022-11-12T05:40:14;5.90;99.90
15003;DHT22;7597;53.590;10.020;2022-11-12T05:42:41;5.70;99.90
15003;DHT22;7597;53.590;10.020;2022-11-12T05:45:08;5.70;99.90
15003;DHT22;7597;53.590;10.020;2022-11-12T05:47:34;5.60;99.90
15003;DHT22;7597;53.590;10.020;2022-11-12T05:50:02;5.60;99.90
15003;DHT22;7597;53.590;10.020;2022-11-12T05:52:28;5.70;99.90
15003;DHT22;7597;53.590;10.020;2022-11-12T05:54:55;5.60;99.90
15003;DHT22;7597;53.590;10.020;2022-11-12T05:57:22;6.00;99.90
15003;DHT22;7597;53.590;10.020;2022-11-12T05:59:48;5.50;99.90
15003;DHT22;7597;53.590;10.020;2022-11-12T06:02:15;5.50;99.90
15003;DHT22;7597;53.590;10.020;2022-11-12T06:04:42;5.60;99.90
15003;DHT22;7597;53.590;10.020;2022-11-12T06:07:08;5.50;99.90
15003;DHT22;7597;53.590;10.020;2022-11-12T06:09:35;5.50;99.90
15003;DHT22;7597;53.590;10.020;2022-11-12T06:12:02;5.60;99.90
15003;DHT22;7597;53.590;10.020;2022-11-12T06:14:28;5.50;99.90
15003;DHT22;7597;53.590;10.020;2022-11-12T06:16:56;5.50;99.90
15003;DHT22;7597;53.590;10.020;2022-11-12T06:19:22;5.50;99.90
15003;DHT22;7597;53.590;10.020;2022-11-12T06:21:50;5.50;99.90
15003;DHT22;7597;53.590;10.020;2022-11-12T06:24:16;5.40;99.90
15003;DHT22;7597;53.590;10.020;2022-11-12T06:26:43;5.40;99.90
15003;DHT22;7597;53.590;10.020;2022-11-12T06:29:10;5.40;99.90
15003;DHT22;7597;53.590;10.020;2022-11-12T06:31:36;5.50;99.90
15003;DHT22;7597;53.590;10.020;2022-11-12T06:34:03;5.50;99.90
15003;DHT22;7597;53.590;10.020;2022-11-12T06:36:30;5.50;99.90
15003;DHT22;7597;53.590;10.020;2022-11-12T06:38:56;5.50;99.90
15003;DHT22;7597;53.590;10.020;2022-11-12T06:41:23;5.50;99.90
15003;DHT22;7597;53.590;10.020;2022-11-12T06:43:49;5.50;99.90
15003;DHT22;7597;53.590;10.020;2022-11-12T06:46:16;5.50;99.90
15003;DHT22;7597;53.590;10.020;2022-11-12T06:48:43;5.60;99.90
15003;DHT22;7597;53.590;10.020;2022-11-12T06:51:18;5.60;99.90
15003;DHT22;7597;53.590;10.020;2022-11-12T06:53:44;5.70;99.90
15003;DHT22;7597;53.590;10.020;2022-11-12T06:56:11;5.70;99.90
15003;DHT22;7597;53.590;10.020;2022-11-12T06:58:37;5.70;99.90
15003;DHT22;7597;53.590;10.020;2022-11-12T07:01:08;5.70;99.90
15003;DHT22;7597;53.590;10.020;2022-11-12T07:03:34;5.60;99.90
15003;DHT22;7597;53.590;10.020;2022-11-12T07:06:03;6.00;99.90
15003;DHT22;7597;53.590;10.020;2022-11-12T07:08:29;5.70;99.90
15003;DHT22;7597;53.590;10.020;2022-11-12T07:10:56;5.80;99.90
15003;DHT22;7597;53.590;10.020;2022-11-12T07:13:22;5.80;99.90
15003;DHT22;7597;53.590;10.020;2022-11-12T07:15:49;5.90;99.90
15003;DHT22;7597;53.590;10.020;2022-11-12T07:18:15;6.00;99.90
15003;DHT22;7597;53.590;10.020;2022-11-12T07:20:42;6.10;99.90
15003;DHT22;7597;53.590;10.020;2022-11-12T07:23:09;6.10;99.90
15003;DHT22;7597;53.590;10.020;2022-11-12T07:25:35;6.10;99.90
15003;DHT22;7597;53.590;10.020;2022-11-12T07:28:02;6.20;99.90
15003;DHT22;7597;53.590;10.020;2022-11-12T07:30:29;6.30;99.90
15003;DHT22;7597;53.590;10.020;2022-11-12T07:32:56;6.40;99.90
15003;DHT22;7597;53.590;10.020;2022-11-12T07:35:23;6.50;99.90
15003;DHT22;7597;53.590;10.020;2022-11-12T07:37:49;6.70;99.90
15003;DHT22;7597;53.590;10.020;2022-11-12T07:40:16;6.80;99.90
15003;DHT22;7597;53.590;10.020;2022-11-12T07:42:43;6.90;99.90
15003;DHT22;7597;53.590;10.020;2022-11-12T07:45:09;7.00;99.90
15003;DHT22;7597;53.590;10.020;2022-11-12T07:47:36;7.10;99.90
15003;DHT22;7597;53.590;10.020;2022-11-12T07:50:03;7.30;99.90
15003;DHT22;7597;53.590;10.020;2022-11-12T07:52:31;8.00;99.90
15003;DHT22;7597;53.590;10.020;2022-11-12T07:54:57;8.00;99.90
15003;DHT22;7597;53.590;10.020;2022-11-12T07:57:24;8.70;99.90
15003;DHT22;7597;53.590;10.020;2022-11-12T07:59:50;8.40;99.90
15003;DHT22;7597;53.590;10.020;2022-11-12T08:02:17;8.50;99.90
15003;DHT22;7597;53.590;10.020;2022-11-12T08:04:44;8.40;93.50
15003;DHT22;7597;53.590;10.020;2022-11-12T08:07:10;8.50;67.90
15003;DHT22;7597;53.590;10.020;2022-11-12T08:09:37;8.70;73.60
15003;DHT22;7597;53.590;10.020;2022-11-12T08:12:04;9.30;88.40
15003;DHT22;7597;53.590;10.020;2022-11-12T08:14:30;10.00;1.00
15003;DHT22;7597;53.590;10.020;2022-11-12T08:16:57;11.00;1.00
15003;DHT22;7597;53.590;10.020;2022-11-12T08:19:24;12.10;1.00
15003;DHT22;7597;53.590;10.020;2022-11-12T08:21:50;13.40;1.00
15003;DHT22;7597;53.590;10.020;2022-11-12T08:24:17;14.40;1.00
15003;DHT22;7597;53.590;10.020;2022-11-12T08:26:44;15.00;1.00
15003;DHT22;7597;53.590;10.020;2022-11-12T08:29:10;15.80;1.00
15003;DHT22;7597;53.590;10.020;2022-11-12T08:31:37;16.40;1.00
15003;DHT22;7597;53.590;10.020;2022-11-12T08:34:04;16.80;1.00
15003;DHT22;7597;53.590;10.020;2022-11-12T08:36:31;17.70;1.00
15003;DHT22;7597;53.590;10.020;2022-11-12T08:38:58;17.70;1.00
15003;DHT22;7597;53.590;10.020;2022-11-12T08:41:25;17.90;1.00
15003;DHT22;7597;53.590;10.020;2022-11-12T08:43:51;18.10;1.00
15003;DHT22;7597;53.590;10.020;2022-11-12T08:46:19;18.20;1.00
15003;DHT22;7597;53.590;10.020;2022-11-12T08:48:46;18.20;1.00
15003;DHT22;7597;53.590;10.020;2022-11-12T08:51:12;18.30;1.00
15003;DHT22;7597;53.590;10.020;2022-11-12T08:53:39;18.50;1.00
15003;DHT22;7597;53.590;10.020;2022-11-12T08:56:06;18.70;1.00
15003;DHT22;7597;53.590;10.020;2022-11-12T08:58:33;18.70;1.00
15003;DHT22;7597;53.590;10.020;2022-11-12T09:01:03;18.50;1.00
15003;DHT22;7597;53.590;10.020;2022-11-12T09:03:29;18.60;1.00
15003;DHT22;7597;53.590;10.020;2022-11-12T09:05:56;18.80;1.00
15003;DHT22;7597;53.590;10.020;2022-11-12T09:08:23;19.10;1.00
15003;DHT22;7597;53.590;10.020;2022-11-12T09:10:50;19.30;1.00
15003;DHT22;7597;53.590;10.020;2022-11-12T09:13:16;19.90;1.00
15003;DHT22;7597;53.590;10.020;2022-11-12T09:15:43;20.50;1.00
15003;DHT22;7597;53.590;10.020;2022-11-12T09:18:11;20.60;1.00
15003;DHT22;7597;53.590;10.020;2022-11-12T09:20:36;21.10;1.00
15003;DHT22;7597;53.590;10.020;2022-11-12T09:23:05;21.30;1.00
15003;DHT22;7597;53.590;10.020;2022-11-12T09:25:30;21.40;1.00
15003;DHT22;7597;53.590;10.020;2022-11-12T09:27:57;22.30;1.00
15003;DHT22;7597;53.590;10.020;2022-11-12T09:30:23;21.90;1.00
15003;DHT22;7597;53.590;10.020;2022-11-12T09:32:55;21.20;1.00
15003;DHT22;7597;53.590;10.020;2022-11-12T09:35:17;20.60;1.00
15003;DHT22;7597;53.590;10.020;2022-11-12T09:37:43;20.60;1.00
15003;DHT22;7597;53.590;10.020;2022-11-12T09:40:14;20.90;1.00
15003;DHT22;7597;53.590;10.020;2022-11-12T09:42:38;22.30;1.00
15003;DHT22;7597;53.590;10.020;2022-11-12T09:45:17;22.30;1.00
15003;DHT22;7597;53.590;10.020;2022-11-12T09:47:44;21.90;1.00
15003;DHT22;7597;53.590;10.020;2022-11-12T09:50:25;21.40;1.00
15003;DHT22;7597;53.590;10.020;2022-11-12T09:52:55;21.30;1.00
15003;DHT22;7597;53.590;10.020;2022-11-12T09:55:37;20.90;1.00
15003;DHT22;7597;53.590;10.020;2022-11-12T09:58:04;21.70;1.00
15003;DHT22;7597;53.590;10.020;2022-11-12T10:00:29;22.20;1.00
15003;DHT22;7597;53.590;10.020;2022-11-12T10:03:03;22.60;1.00
15003;DHT22;7597;53.590;10.020;2022-11-12T10:05:32;23.60;1.00
15003;DHT22;7597;53.590;10.020;2022-11-12T10:11:28;25.20;1.00
15003;DHT22;7597;53.590;10.020;2022-11-12T10:14:11;25.30;1.00
15003;DHT22;7597;53.590;10.020;2022-11-12T10:19:20;24.30;1.00
15003;DHT22;7597;53.590;10.020;2022-11-12T10:22:57;24.90;1.00
15003;DHT22;7597;53.590;10.020;2022-11-12T10:24:29;24.40;1.00
15003;DHT22;7597;53.590;10.020;2022-11-12T10:26:54;24.30;1.00
15003;DHT22;7597;53.590;10.020;2022-11-12T10:29:39;25.00;1.00
15003;DHT22;7597;53.590;10.020;2022-11-12T10:32:07;25.10;1.00
15003;DHT22;7597;53.590;10.020;2022-11-12T10:34:32;23.20;1.00
15003;DHT22;7597;53.590;10.020;2022-11-12T10:37:01;23.10;1.00
15003;DHT22;7597;53.590;10.020;2022-11-12T10:39:35;23.50;1.00
15003;DHT22;7597;53.590;10.020;2022-11-12T10:42:03;24.10;1.00
15003;DHT22;7597;53.590;10.020;2022-11-12T10:44:29;23.50;1.00
15003;DHT22;7597;53.590;10.020;2022-11-12T10:49:28;23.40;1.00
15003;DHT22;7597;53.590;10.020;2022-11-12T10:51:56;23.20;1.00
15003;DHT22;7597;53.590;10.020;2022-11-12T10:54:35;23.00;1.00
15003;DHT22;7597;53.590;10.020;2022-11-12T10:57:26;22.50;1.00
15003;DHT22;7597;53.590;10.020;2022-11-12T11:00:18;22.00;1.00
15003;DHT22;7597;53.590;10.020;2022-11-12T11:02:51;23.20;1.00
15003;DHT22;7597;53.590;10.020;2022-11-12T11:05:30;23.80;1.00
15003;DHT22;7597;53.590;10.020;2022-11-12T11:07:56;24.60;1.00
15003;DHT22;7597;53.590;10.020;2022-11-12T11:10:27;25.10;1.00
15003;DHT22;7597;53.590;10.020;2022-11-12T11:15:30;26.10;1.00
15003;DHT22;7597;53.590;10.020;2022-11-12T11:17:57;27.30;1.00
15003;DHT22;7597;53.590;10.020;2022-11-12T11:20:25;27.00;1.00
15003;DHT22;7597;53.590;10.020;2022-11-12T11:22:55;26.20;1.00
15003;DHT22;7597;53.590;10.020;2022-11-12T11:25:24;25.60;1.00
15003;DHT22;7597;53.590;10.020;2022-11-12T11:28:03;26.20;1.00
15003;DHT22;7597;53.590;10.020;2022-11-12T11:30:26;25.10;1.00
15003;DHT22;7597;53.590;10.020;2022-11-12T11:33:44;23.80;1.00
15003;DHT22;7597;53.590;10.020;2022-11-12T11:36:20;23.30;1.00
15003;DHT22;7597;53.590;10.020;2022-11-12T11:39:06;22.60;1.00
15003;DHT22;7597;53.590;10.020;2022-11-12T11:41:39;22.90;1.00
15003;DHT22;7597;53.590;10.020;2022-11-12T11:44:13;23.10;1.00
15003;DHT22;7597;53.590;10.020;2022-11-12T11:46:48;22.70;1.00
15003;DHT22;7597;53.590;10.020;2022-11-12T11:49:42;22.80;1.00
15003;DHT22;7597;53.590;10.020;2022-11-12T11:52:28;22.30;1.00
15003;DHT22;7597;53.590;10.020;2022-11-12T11:54:59;19.70;1.00
15003;DHT22;7597;53.590;10.020;2022-11-12T11:57:24;19.60;1.00
15003;DHT22;7597;53.590;10.020;2022-11-12T12:00:14;18.60;1.00
15003;DHT22;7597;53.590;10.020;2022-11-12T12:03:29;18.50;1.00
15003;DHT22;7597;53.590;10.020;2022-11-12T12:05:44;18.40;1.00
15003;DHT22;7597;53.590;10.020;2022-11-12T12:08:11;18.20;1.00
15003;DHT22;7597;53.590;10.020;2022-11-12T12:10:46;17.70;1.00
15003;DHT22;7597;53.590;10.020;2022-11-12T12:13:23;17.60;1.00
15003;DHT22;7597;53.590;10.020;2022-11-12T12:16:00;17.50;1.00
15003;DHT22;7597;53.590;10.020;2022-11-12T12:19:32;16.90;1.00
15003;DHT22;7597;53.590;10.020;2022-11-12T12:21:11;16.70;1.00
15003;DHT22;7597;53.590;10.020;2022-11-12T12:23:55;16.50;1.00
15003;DHT22;7597;53.590;10.020;2022-11-12T12:26:28;16.20;1.00
15003;DHT22;7597;53.590;10.020;2022-11-12T12:28:57;15.80;1.00
15003;DHT22;7597;53.590;10.020;2022-11-12T12:31:23;15.80;1.00
15003;DHT22;7597;53.590;10.020;2022-11-12T12:33:52;15.50;1.00
15003;DHT22;7597;53.590;10.020;2022-11-12T12:36:29;15.40;1.00
15003;DHT22;7597;53.590;10.020;2022-11-12T12:39:33;15.20;1.00
15003;DHT22;7597;53.590;10.020;2022-11-12T12:44:14;14.80;1.00
15003;DHT22;7597;53.590;10.020;2022-11-12T12:46:52;14.50;1.00
15003;DHT22;7597;53.590;10.020;2022-11-12T12:49:22;14.40;1.00
15003;DHT22;7597;53.590;10.020;2022-11-12T12:51:47;14.50;1.00
15003;DHT22;7597;53.590;10.020;2022-11-12T12:56:52;14.70;1.00
15003;DHT22;7597;53.590;10.020;2022-11-12T12:59:20;14.50;1.00
15003;DHT22;7597;53.590;10.020;2022-11-12T13:01:52;14.20;1.00
15003;DHT22;7597;53.590;10.020;2022-11-12T13:04:13;14.20;1.00
15003;DHT22;7597;53.590;10.020;2022-11-12T13:06:52;14.10;1.00
15003;DHT22;7597;53.590;10.020;2022-11-12T13:09:21;14.10;1.00
15003;DHT22;7597;53.590;10.020;2022-11-12T13:11:50;13.80;1.00
15003;DHT22;7597;53.590;10.020;2022-11-12T13:14:48;13.80;1.00
15003;DHT22;7597;53.590;10.020;2022-11-12T13:17:14;13.90;1.00
15003;DHT22;7597;53.590;10.020;2022-11-12T13:22:49;13.80;1.00
15003;DHT22;7597;53.590;10.020;2022-11-12T13:25:26;13.80;1.00
15003;DHT22;7597;53.590;10.020;2022-11-12T13:28:03;13.80;1.00
15003;DHT22;7597;53.590;10.020;2022-11-12T13:30:56;13.60;1.00
15003;DHT22;7597;53.590;10.020;2022-11-12T13:33:26;13.60;1.00
15003;DHT22;7597;53.590;10.020;2022-11-12T13:35:49;13.50;1.00
15003;DHT22;7597;53.590;10.020;2022-11-12T13:38:16;13.50;1.00
15003;DHT22;7597;53.590;10.020;2022-11-12T13:40:45;13.40;1.00
15003;DHT22;7597;53.590;10.020;2022-11-12T13:43:23;13.40;1.00
15003;DHT22;7597;53.590;10.020;2022-11-12T13:45:52;13.30;1.00
15003;DHT22;7597;53.590;10.020;2022-11-12T13:48:22;13.30;1.00
15003;DHT22;7597;53.590;10.020;2022-11-12T13:50:48;13.90;1.00
15003;DHT22;7597;53.590;10.020;2022-11-12T13:53:14;13.40;1.00
15003;DHT22;7597;53.590;10.020;2022-11-12T13:55:46;13.30;1.00
15003;DHT22;7597;53.590;10.020;2022-11-12T13:58:39;13.30;1.00
15003;DHT22;7597;53.590;10.020;2022-11-12T14:00:56;13.20;1.00
15003;DHT22;7597;53.590;10.020;2022-11-12T14:03:23;13.20;1.00
15003;DHT22;7597;53.590;10.020;2022-11-12T14:05:49;13.10;1.00
15003;DHT22;7597;53.590;10.020;2022-11-12T14:08:31;13.10;1.00
15003;DHT22;7597;53.590;10.020;2022-11-12T14:14:04;13.00;1.00
15003;DHT22;7597;53.590;10.020;2022-11-12T14:16:37;13.00;1.00
15003;DHT22;7597;53.590;10.020;2022-11-12T14:19:39;12.90;1.00
15003;DHT22;7597;53.590;10.020;2022-11-12T14:21:58;12.90;1.00
15003;DHT22;7597;53.590;10.020;2022-11-12T14:24:24;12.80;1.00
15003;DHT22;7597;53.590;10.020;2022-11-12T14:26:51;12.70;1.00
15003;DHT22;7597;53.590;10.020;2022-11-12T14:29:18;12.70;1.00
15003;DHT22;7597;53.590;10.020;2022-11-12T14:31:44;12.60;1.00
15003;DHT22;7597;53.590;10.020;2022-11-12T14:34:19;12.70;1.00
15003;DHT22;7597;53.590;10.020;2022-11-12T14:36:45;12.70;1.00
15003;DHT22;7597;53.590;10.020;2022-11-12T14:39:12;12.80;1.00
15003;DHT22;7597;53.590;10.020;2022-11-12T14:41:40;12.80;1.00
15003;DHT22;7597;53.590;10.020;2022-11-12T14:44:06;12.70;1.00
15003;DHT22;7597;53.590;10.020;2022-11-12T14:46:44;12.70;1.00
15003;DHT22;7597;53.590;10.020;2022-11-12T14:49:32;12.60;1.00
15003;DHT22;7597;53.590;10.020;2022-11-12T14:52:03;12.60;1.00
15003;DHT22;7597;53.590;10.020;2022-11-12T14:54:32;12.40;1.00
15003;DHT22;7597;53.590;10.020;2022-11-12T14:56:57;12.30;1.00
15003;DHT22;7597;53.590;10.020;2022-11-12T14:59:24;12.10;1.00
15003;DHT22;7597;53.590;10.020;2022-11-12T15:02:02;12.10;1.00
15003;DHT22;7597;53.590;10.020;2022-11-12T15:04:34;12.00;1.00
15003;DHT22;7597;53.590;10.020;2022-11-12T15:06:55;11.90;1.00
15003;DHT22;7597;53.590;10.020;2022-11-12T15:11:59;11.70;1.00
15003;DHT22;7597;53.590;10.020;2022-11-12T15:14:26;11.60;1.00
15003;DHT22;7597;53.590;10.020;2022-11-12T15:16:52;11.50;1.00
15003;DHT22;7597;53.590;10.020;2022-11-12T15:19:23;11.40;1.00
15003;DHT22;7597;53.590;10.020;2022-11-12T15:21:51;11.20;1.00
15003;DHT22;7597;53.590;10.020;2022-11-12T15:24:34;11.00;1.00
15003;DHT22;7597;53.590;10.020;2022-11-12T15:29:34;10.80;1.00
15003;DHT22;7597;53.590;10.020;2022-11-12T15:32:01;10.70;1.00
15003;DHT22;7597;53.590;10.020;2022-11-12T15:34:40;10.60;1.00
15003;DHT22;7597;53.590;10.020;2022-11-12T15:37:00;10.50;1.00
15003;DHT22;7597;53.590;10.020;2022-11-12T15:39:26;10.40;1.00
15003;DHT22;7597;53.590;10.020;2022-11-12T15:41:59;10.40;1.00
15003;DHT22;7597;53.590;10.020;2022-11-12T15:44:25;10.30;1.00
15003;DHT22;7597;53.590;10.020;2022-11-12T15:46:52;10.10;1.00
15003;DHT22;7597;53.590;10.020;2022-11-12T15:49:19;10.10;1.00
15003;DHT22;7597;53.590;10.020;2022-11-12T15:51:46;10.00;1.00
15003;DHT22;7597;53.590;10.020;2022-11-12T15:54:13;10.00;1.00
15003;DHT22;7597;53.590;10.020;2022-11-12T15:56:40;9.80;1.00
15003;DHT22;7597;53.590;10.020;2022-11-12T15:59:09;9.70;1.00
15003;DHT22;7597;53.590;10.020;2022-11-12T16:01:34;9.60;1.00
15003;DHT22;7597;53.590;10.020;2022-11-12T16:04:00;9.60;1.00
15003;DHT22;7597;53.590;10.020;2022-11-12T16:06:27;9.50;1.00
15003;DHT22;7597;53.590;10.020;2022-11-12T16:08:54;9.40;1.00
15003;DHT22;7597;53.590;10.020;2022-11-12T16:11:20;9.30;1.00
15003;DHT22;7597;53.590;10.020;2022-11-12T16:13:53;9.30;1.00
15003;DHT22;7597;53.590;10.020;2022-11-12T16:16:20;9.20;1.00
15003;DHT22;7597;53.590;10.020;2022-11-12T16:18:47;9.20;1.00
15003;DHT22;7597;53.590;10.020;2022-11-12T16:21:14;9.10;1.00
15003;DHT22;7597;53.590;10.020;2022-11-12T16:23:40;9.00;1.00
15003;DHT22;7597;53.590;10.020;2022-11-12T16:26:07;9.00;1.00